createdAt,value
2023-05-20T00:00:54.429Z,1509.00
2023-05-20T00:01:54.488Z,1507.00
2023-05-20T00:02:54.611Z,1512.00
2023-05-20T00:03:54.679Z,1518.00
2023-05-20T00:04:54.641Z,1522.00
2023-05-20T00:05:54.566Z,1521.00
2023-05-20T00:06:54.618Z,1514.00
2023-05-20T00:07:54.659Z,1502.00
2023-05-20T00:08:54.630Z,1484.00
2023-05-20T00:09:54.682Z,1474.00
2023-05-20T00:10:54.722Z,1485.00
2023-05-20T00:11:54.683Z,1498.00
2023-05-20T00:12:54.703Z,1504.00
2023-05-20T00:13:54.685Z,1500.00
2023-05-20T00:14:56.061Z,1487.00
2023-05-20T00:15:54.750Z,1487.00
2023-05-20T00:16:54.806Z,1484.00
2023-05-20T00:17:54.833Z,1484.00
2023-05-20T00:18:54.874Z,1477.00
2023-05-20T00:19:54.852Z,1477.00
2023-05-20T00:20:54.891Z,1475.00
2023-05-20T00:21:54.894Z,1478.00
2023-05-20T00:22:54.890Z,1485.00
2023-05-20T00:23:54.879Z,1491.00
2023-05-20T00:24:54.921Z,1492.00
2023-05-20T00:25:54.924Z,1484.00
2023-05-20T00:26:54.926Z,1478.00
2023-05-20T00:27:54.968Z,1484.00
2023-05-20T00:28:54.969Z,1491.00
2023-05-20T00:29:55.025Z,1484.00
2023-05-20T00:30:55.068Z,1486.00
2023-05-20T00:31:55.136Z,1474.00
2023-05-20T00:32:55.213Z,1469.00
2023-05-20T00:33:55.168Z,1481.00
2023-05-20T00:34:55.244Z,1485.00
2023-05-20T00:35:55.203Z,1494.00
2023-05-20T00:36:55.267Z,1492.00
2023-05-20T00:37:55.298Z,1488.00
2023-05-20T00:38:55.303Z,1491.00
2023-05-20T00:39:55.356Z,1481.00
2023-05-20T00:40:55.343Z,1481.00
2023-05-20T00:41:55.387Z,1478.00
2023-05-20T00:42:55.430Z,1474.00
2023-05-20T00:43:55.475Z,1489.00
2023-05-20T00:44:55.551Z,1487.00
2023-05-20T00:45:55.583Z,1484.00
2023-05-20T00:46:55.599Z,1490.00
2023-05-20T00:47:55.627Z,1490.00
2023-05-20T00:48:55.617Z,1494.00
2023-05-20T00:49:55.659Z,1472.00
2023-05-20T00:50:55.666Z,1462.00
2023-05-20T00:51:55.691Z,1478.00
2023-05-20T00:52:55.700Z,1480.00
2023-05-20T00:53:55.741Z,1491.00
2023-05-20T00:54:55.799Z,1495.00
2023-05-20T00:55:55.814Z,1497.00
2023-05-20T00:56:55.842Z,1493.00
2023-05-20T00:57:55.872Z,1496.00
2023-05-20T00:58:55.902Z,1502.00
2023-05-20T00:59:55.950Z,1508.00
2023-05-20T01:00:55.995Z,1510.00
2023-05-20T01:01:55.994Z,1503.00
2023-05-20T01:02:56.139Z,1497.00
2023-05-20T01:03:56.070Z,1503.00
2023-05-20T01:04:56.068Z,1500.00
2023-05-20T01:05:56.107Z,1498.00
2023-05-20T01:06:56.165Z,1500.00
2023-05-20T01:07:56.136Z,1498.00
2023-05-20T01:08:56.213Z,1499.00
2023-05-20T01:09:56.378Z,1497.00
2023-05-20T01:10:56.268Z,1500.00
2023-05-20T01:11:56.310Z,1489.00
2023-05-20T01:12:56.329Z,1494.00
2023-05-20T01:13:56.395Z,1501.00
2023-05-20T01:14:56.414Z,1485.00
2023-05-20T01:15:56.479Z,1484.00
2023-05-20T01:16:56.499Z,1485.00
2023-05-20T01:17:56.496Z,1486.00
2023-05-20T01:18:56.585Z,1478.00
2023-05-20T01:19:56.600Z,1474.00
2023-05-20T01:20:56.603Z,1472.00
2023-05-20T01:21:56.625Z,1473.00
2023-05-20T01:22:56.666Z,1445.00
2023-05-20T01:23:56.680Z,1453.00
2023-05-20T01:24:56.721Z,1449.00
2023-05-20T01:25:56.752Z,1456.00
2023-05-20T01:26:56.794Z,1444.00
2023-05-20T01:27:56.788Z,1455.00
2023-05-20T01:28:56.796Z,1456.00
2023-05-20T01:29:56.793Z,1459.00
2023-05-20T01:30:56.907Z,1453.00
2023-05-20T01:31:56.931Z,1448.00
2023-05-20T01:32:56.905Z,1438.00
2023-05-20T01:33:56.881Z,1434.00
2023-05-20T01:34:56.866Z,1434.00
2023-05-20T01:35:56.904Z,1433.00
2023-05-20T01:36:56.876Z,1420.00
2023-05-20T01:37:56.883Z,1417.00
2023-05-20T01:38:56.906Z,1424.00
2023-05-20T01:39:56.906Z,1417.00
2023-05-20T01:40:56.911Z,1418.00
2023-05-20T01:41:56.939Z,1420.00
2023-05-20T01:42:56.964Z,1413.00
2023-05-20T01:43:56.983Z,1405.00
2023-05-20T01:44:57.021Z,1403.00
2023-05-20T01:45:56.992Z,1405.00
2023-05-20T01:46:57.147Z,1414.00
2023-05-20T01:47:57.075Z,1406.00
2023-05-20T01:48:57.059Z,1404.00
2023-05-20T01:49:57.044Z,1404.00
2023-05-20T01:50:57.096Z,1403.00
2023-05-20T01:51:57.069Z,1398.00
2023-05-20T01:52:57.121Z,1392.00
2023-05-20T01:53:57.102Z,1385.00
2023-05-20T01:54:57.208Z,1370.00
2023-05-20T01:55:57.142Z,1384.00
2023-05-20T01:56:57.168Z,1384.00
2023-05-20T01:57:57.143Z,1380.00
2023-05-20T01:58:57.156Z,1368.00
2023-05-20T01:59:57.179Z,1386.00
2023-05-20T02:00:57.264Z,1376.00
2023-05-20T02:01:57.243Z,1380.00
2023-05-20T02:02:57.206Z,1377.00
2023-05-20T02:03:57.210Z,1382.00
2023-05-20T02:04:57.218Z,1384.00
2023-05-20T02:05:57.292Z,1385.00
2023-05-20T02:06:57.222Z,1388.00
2023-05-20T02:07:57.290Z,1384.00
2023-05-20T02:08:57.291Z,1389.00
2023-05-20T02:09:57.303Z,1395.00
2023-05-20T02:10:57.294Z,1395.00
2023-05-20T02:11:57.317Z,1388.00
2023-05-20T02:12:57.341Z,1386.00
2023-05-20T02:13:57.372Z,1383.00
2023-05-20T02:14:57.404Z,1394.00
2023-05-20T02:15:57.494Z,1400.00
2023-05-20T02:16:57.636Z,1398.00
2023-05-20T02:17:57.519Z,1393.00
2023-05-20T02:18:57.481Z,1402.00
2023-05-20T02:19:57.517Z,1404.00
2023-05-20T02:20:57.498Z,1401.00
2023-05-20T02:21:57.528Z,1402.00
2023-05-20T02:22:57.541Z,1405.00
2023-05-20T02:23:57.587Z,1400.00
2023-05-20T02:24:57.585Z,1410.00
2023-05-20T02:25:57.594Z,1403.00
2023-05-20T02:26:57.609Z,1401.00
2023-05-20T02:27:57.605Z,1408.00
2023-05-20T02:28:57.632Z,1399.00
2023-05-20T02:29:57.661Z,1394.00
2023-05-20T02:30:57.661Z,1398.00
2023-05-20T02:31:57.693Z,1398.00
2023-05-20T02:32:57.710Z,1402.00
2023-05-20T02:33:57.742Z,1405.00
2023-05-20T02:34:57.788Z,1411.00
2023-05-20T02:35:57.768Z,1415.00
2023-05-20T02:36:57.835Z,1416.00
2023-05-20T02:37:57.794Z,1420.00
2023-05-20T02:38:57.810Z,1409.00
2023-05-20T02:39:57.791Z,1405.00
2023-05-20T02:40:57.819Z,1403.00
2023-05-20T02:41:57.868Z,1409.00
2023-05-20T02:42:57.855Z,1407.00
2023-05-20T02:43:57.896Z,1412.00
2023-05-20T02:44:57.905Z,1409.00
2023-05-20T02:45:57.990Z,1409.00
2023-05-20T02:46:57.921Z,1413.00
2023-05-20T02:47:58.010Z,1408.00
2023-05-20T02:48:57.986Z,1417.00
2023-05-20T02:49:57.981Z,1416.00
2023-05-20T02:50:58.037Z,1418.00
2023-05-20T02:51:58.056Z,1411.00
2023-05-20T02:52:58.084Z,1411.00
2023-05-20T02:53:58.127Z,1404.00
2023-05-20T02:54:58.194Z,1409.00
2023-05-20T02:55:58.213Z,1412.00
2023-05-20T02:56:58.249Z,1410.00
2023-05-20T02:57:58.275Z,1401.00
2023-05-20T02:58:58.283Z,1396.00
2023-05-20T02:59:58.327Z,1392.00
2023-05-20T03:00:58.320Z,1390.00
2023-05-20T03:01:58.362Z,1388.00
2023-05-20T03:02:58.400Z,1401.00
2023-05-20T03:03:58.388Z,1399.00
2023-05-20T03:04:58.348Z,1408.00
2023-05-20T03:05:58.381Z,1405.00
2023-05-20T03:06:58.399Z,1408.00
2023-05-20T03:07:58.442Z,1407.00
2023-05-20T03:08:58.466Z,1409.00
2023-05-20T03:09:58.481Z,1410.00
2023-05-20T03:10:58.522Z,1414.00
2023-05-20T03:11:58.529Z,1409.00
2023-05-20T03:12:58.594Z,1411.00
2023-05-20T03:13:58.590Z,1416.00
2023-05-20T03:14:58.585Z,1408.00
2023-05-20T03:15:58.749Z,1406.00
2023-05-20T03:16:58.620Z,1400.00
2023-05-20T03:17:58.708Z,1409.00
2023-05-20T03:18:58.683Z,1405.00
2023-05-20T03:19:58.689Z,1403.00
2023-05-20T03:20:58.685Z,1400.00
2023-05-20T03:21:58.723Z,1402.00
2023-05-20T03:22:58.702Z,1419.00
2023-05-20T03:23:58.750Z,1399.00
2023-05-20T03:24:58.743Z,1399.00
2023-05-20T03:25:58.771Z,1404.00
2023-05-20T03:26:58.754Z,1403.00
2023-05-20T03:27:58.786Z,1403.00
2023-05-20T03:28:58.795Z,1404.00
2023-05-20T03:29:58.806Z,1411.00
2023-05-20T03:30:58.864Z,1411.00
2023-05-20T03:31:58.858Z,1405.00
2023-05-20T03:32:58.872Z,1413.00
2023-05-20T03:33:58.875Z,1418.00
2023-05-20T03:34:58.873Z,1414.00
2023-05-20T03:35:58.890Z,1415.00
2023-05-20T03:36:58.917Z,1414.00
2023-05-20T03:37:58.938Z,1412.00
2023-05-20T03:38:58.966Z,1416.00
2023-05-20T03:39:58.954Z,1419.00
2023-05-20T03:40:58.988Z,1422.00
2023-05-20T03:41:59.011Z,1425.00
2023-05-20T03:42:58.993Z,1424.00
2023-05-20T03:43:59.040Z,1427.00
2023-05-20T03:44:59.018Z,1423.00
2023-05-20T03:45:59.022Z,1420.00
2023-05-20T03:46:59.122Z,1420.00
2023-05-20T03:47:59.086Z,1420.00
2023-05-20T03:48:59.057Z,1425.00
2023-05-20T03:49:59.114Z,1420.00
2023-05-20T03:50:59.089Z,1413.00
2023-05-20T03:51:59.115Z,1418.00
2023-05-20T03:52:59.163Z,1413.00
2023-05-20T03:53:59.159Z,1409.00
2023-05-20T03:54:59.147Z,1409.00
2023-05-20T03:55:59.137Z,1410.00
2023-05-20T03:56:59.151Z,1412.00
2023-05-20T03:57:59.180Z,1407.00
2023-05-20T03:58:59.224Z,1405.00
2023-05-20T03:59:59.208Z,1401.00
2023-05-20T04:00:59.240Z,1404.00
2023-05-20T04:01:59.270Z,1407.00
2023-05-20T04:02:59.396Z,1403.00
2023-05-20T04:03:59.348Z,1402.00
2023-05-20T04:04:59.317Z,1408.00
2023-05-20T04:05:59.342Z,1397.00
2023-05-20T04:06:59.355Z,1391.00
2023-05-20T04:07:59.358Z,1394.00
2023-05-20T04:08:59.399Z,1396.00
2023-05-20T04:09:59.479Z,1393.00
2023-05-20T04:10:59.437Z,1397.00
2023-05-20T04:11:59.432Z,1393.00
2023-05-20T04:12:59.491Z,1389.00
2023-05-20T04:13:59.470Z,1385.00
2023-05-20T04:14:59.493Z,1383.00
2023-05-20T04:15:59.538Z,1383.00
2023-05-20T04:16:59.670Z,1374.00
2023-05-20T04:17:59.664Z,1376.00
2023-05-20T04:18:59.647Z,1374.00
2023-05-20T04:19:59.693Z,1380.00
2023-05-20T04:20:59.653Z,1378.00
2023-05-20T04:21:59.621Z,1374.00
2023-05-20T04:22:59.650Z,1369.00
2023-05-20T04:23:59.659Z,1377.00
2023-05-20T04:24:59.673Z,1377.00
2023-05-20T04:25:59.717Z,1372.00
2023-05-20T04:26:59.721Z,1365.00
2023-05-20T04:27:59.829Z,1365.00
2023-05-20T04:28:59.804Z,1366.00
2023-05-20T04:29:59.820Z,1360.00
2023-05-20T04:30:59.795Z,1355.00
2023-05-20T04:31:59.856Z,1366.00
2023-05-20T04:32:59.875Z,1361.00
2023-05-20T04:33:59.875Z,1356.00
2023-05-20T04:34:59.857Z,1365.00
2023-05-20T04:35:59.896Z,1367.00
2023-05-20T04:36:59.887Z,1361.00
2023-05-20T04:38:00.044Z,1365.00
2023-05-20T04:39:00.628Z,1364.00
2023-05-20T04:39:59.943Z,1371.00
2023-05-20T04:40:59.968Z,1369.00
2023-05-20T04:42:00.131Z,1357.00
2023-05-20T04:42:59.997Z,1361.00
2023-05-20T04:44:00.006Z,1361.00
2023-05-20T04:45:00.031Z,1362.00
2023-05-20T04:46:00.082Z,1358.00
2023-05-20T04:47:00.054Z,1361.00
2023-05-20T04:48:00.135Z,1361.00
2023-05-20T04:49:00.146Z,1358.00
2023-05-20T04:50:00.162Z,1360.00
2023-05-20T04:51:00.156Z,1353.00
2023-05-20T04:52:00.137Z,1355.00
2023-05-20T04:53:00.185Z,1360.00
2023-05-20T04:54:00.199Z,1358.00
2023-05-20T04:55:00.225Z,1358.00
2023-05-20T04:56:00.233Z,1360.00
2023-05-20T04:57:00.246Z,1357.00
2023-05-20T04:58:00.371Z,1355.00
2023-05-20T04:59:00.247Z,1362.00
2023-05-20T05:00:00.264Z,1355.00
2023-05-20T05:01:00.314Z,1357.00
2023-05-20T05:02:00.526Z,1361.00
2023-05-20T05:03:00.358Z,1358.00
2023-05-20T05:04:00.352Z,1358.00
2023-05-20T05:05:00.436Z,1355.00
2023-05-20T05:06:00.369Z,1361.00
2023-05-20T05:07:00.423Z,1357.00
2023-05-20T05:08:00.416Z,1362.00
2023-05-20T05:09:00.448Z,1355.00
2023-05-20T05:10:00.503Z,1353.00
2023-05-20T05:11:00.496Z,1353.00
2023-05-20T05:12:00.484Z,1353.00
2023-05-20T05:13:00.594Z,1354.00
2023-05-20T05:14:00.603Z,1352.00
2023-05-20T05:15:00.609Z,1346.00
2023-05-20T05:16:00.661Z,1346.00
2023-05-20T05:17:00.629Z,1342.00
2023-05-20T05:18:00.700Z,1343.00
2023-05-20T05:19:00.619Z,1343.00
2023-05-20T05:20:00.640Z,1340.00
2023-05-20T05:21:00.673Z,1336.00
2023-05-20T05:22:00.669Z,1340.00
2023-05-20T05:23:00.697Z,1338.00
2023-05-20T05:24:00.733Z,1341.00
2023-05-20T05:25:00.740Z,1335.00
2023-05-20T05:26:00.737Z,1333.00
2023-05-20T05:27:00.773Z,1335.00
2023-05-20T05:28:00.831Z,1332.00
2023-05-20T05:29:00.813Z,1333.00
2023-05-20T05:30:00.819Z,1333.00
2023-05-20T05:31:00.850Z,1330.00
2023-05-20T05:32:00.903Z,1329.00
2023-05-20T05:33:01.087Z,1330.00
2023-05-20T05:34:00.926Z,1332.00
2023-05-20T05:35:00.920Z,1323.00
2023-05-20T05:36:00.928Z,1336.00
2023-05-20T05:37:00.919Z,1338.00
2023-05-20T05:38:00.929Z,1327.00
2023-05-20T05:39:01.019Z,1322.00
2023-05-20T05:40:00.992Z,1322.00
2023-05-20T05:41:00.955Z,1320.00
2023-05-20T05:42:00.992Z,1321.00
2023-05-20T05:43:00.982Z,1312.00
2023-05-20T05:44:01.028Z,1311.00
2023-05-20T05:45:01.035Z,1311.00
2023-05-20T05:46:01.056Z,1310.00
2023-05-20T05:47:01.136Z,1314.00
2023-05-20T05:48:01.126Z,1302.00
2023-05-20T05:49:01.102Z,1293.00
2023-05-20T05:50:01.088Z,1290.00
2023-05-20T05:51:01.140Z,1275.00
2023-05-20T05:52:01.156Z,1270.00
2023-05-20T05:53:01.142Z,1275.00
2023-05-20T05:54:01.192Z,1268.00
2023-05-20T05:55:01.216Z,1274.00
2023-05-20T05:56:01.291Z,1277.00
2023-05-20T05:57:01.328Z,1273.00
2023-05-20T05:58:01.328Z,1269.00
2023-05-20T05:59:01.388Z,1273.00
2023-05-20T06:00:01.406Z,1277.00
2023-05-20T06:01:01.452Z,1272.00
2023-05-20T06:02:01.410Z,1266.00
2023-05-20T06:03:01.561Z,1266.00
2023-05-20T06:04:01.517Z,1270.00
2023-05-20T06:05:01.482Z,1264.00
2023-05-20T06:06:01.486Z,1267.00
2023-05-20T06:07:01.535Z,1279.00
2023-05-20T06:08:01.584Z,1283.00
2023-05-20T06:09:01.626Z,1281.00
2023-05-20T06:10:01.636Z,1277.00
2023-05-20T06:11:01.651Z,1272.00
2023-05-20T06:12:01.678Z,1265.00
2023-05-20T06:13:01.683Z,1260.00
2023-05-20T06:14:01.733Z,1244.00
2023-05-20T06:15:01.751Z,1241.00
2023-05-20T06:16:01.786Z,1238.00
2023-05-20T06:17:01.866Z,1239.00
2023-05-20T06:18:01.907Z,1231.00
2023-05-20T06:19:03.784Z,1229.00
2023-05-20T06:20:01.919Z,1228.00
2023-05-20T06:21:01.985Z,1224.00
2023-05-20T06:22:02.040Z,1228.00
2023-05-20T06:23:02.084Z,1228.00
2023-05-20T06:24:02.103Z,1221.00
2023-05-20T06:25:02.142Z,1228.00
2023-05-20T06:26:02.195Z,1218.00
2023-05-20T06:27:02.245Z,1222.00
2023-05-20T06:28:02.283Z,1216.00
2023-05-20T06:29:02.335Z,1214.00
2023-05-20T06:30:02.380Z,1209.00
2023-05-20T06:31:02.486Z,1203.00
2023-05-20T06:32:02.462Z,1205.00
2023-05-20T06:33:02.513Z,1211.00
2023-05-20T06:34:02.569Z,1215.00
2023-05-20T06:35:02.594Z,1216.00
2023-05-20T06:36:02.646Z,1216.00
2023-05-20T06:37:02.663Z,1212.00
2023-05-20T06:38:02.710Z,1211.00
2023-05-20T06:39:02.726Z,1211.00
2023-05-20T06:40:02.728Z,1216.00
2023-05-20T06:41:02.790Z,1209.00
2023-05-20T06:42:02.789Z,1217.00
2023-05-20T06:43:02.874Z,1219.00
2023-05-20T06:44:02.912Z,1219.00
2023-05-20T06:45:02.941Z,1217.00
2023-05-20T06:46:02.976Z,1217.00
2023-05-20T06:47:03.041Z,1223.00
2023-05-20T06:48:03.124Z,1214.00
2023-05-20T06:49:03.145Z,1215.00
2023-05-20T06:50:03.143Z,1213.00
2023-05-20T06:51:03.197Z,1203.00
2023-05-20T06:52:03.241Z,1208.00
2023-05-20T06:53:03.289Z,1201.00
2023-05-20T06:54:03.300Z,1203.00
2023-05-20T06:55:03.341Z,1195.00
2023-05-20T06:56:03.395Z,1182.00
2023-05-20T06:57:03.433Z,1158.00
2023-05-20T06:58:03.495Z,1146.00
2023-05-20T06:59:03.497Z,1149.00
2023-05-20T07:00:03.534Z,1163.00
2023-05-20T07:01:03.593Z,1156.00
2023-05-20T07:02:03.696Z,1153.00
2023-05-20T07:03:03.731Z,1142.00
2023-05-20T07:04:03.753Z,1144.00
2023-05-20T07:05:03.791Z,1140.00
2023-05-20T07:06:03.833Z,1129.00
2023-05-20T07:07:03.879Z,1130.00
2023-05-20T07:08:03.933Z,1120.00
2023-05-20T07:09:03.967Z,1104.00
2023-05-20T07:10:03.985Z,1135.00
2023-05-20T07:11:04.019Z,1140.00
2023-05-20T07:12:04.044Z,1138.00
2023-05-20T07:13:04.047Z,1150.00
2023-05-20T07:14:04.114Z,1142.00
2023-05-20T07:15:04.118Z,1163.00
2023-05-20T07:16:04.225Z,1156.00
2023-05-20T07:17:04.206Z,1162.00
2023-05-20T07:18:04.290Z,1162.00
2023-05-20T07:19:04.339Z,1172.00
2023-05-20T07:20:04.387Z,1197.00
2023-05-20T07:21:04.314Z,1175.00
2023-05-20T07:22:04.348Z,1170.00
2023-05-20T07:23:04.421Z,1169.00
2023-05-20T07:24:04.473Z,1154.00
2023-05-20T07:25:04.481Z,1167.00
2023-05-20T07:26:04.570Z,1121.00
2023-05-20T07:27:04.619Z,1091.00
2023-05-20T07:28:04.658Z,1097.00
2023-05-20T07:29:04.645Z,1070.00
2023-05-20T07:30:04.701Z,1026.00
2023-05-20T07:31:04.727Z,1018.00
2023-05-20T07:32:04.798Z,1022.00
2023-05-20T07:33:04.811Z,1039.00
2023-05-20T07:34:04.799Z,1045.00
2023-05-20T07:35:04.837Z,1041.00
2023-05-20T07:36:04.873Z,1035.00
2023-05-20T07:37:04.905Z,1057.00
2023-05-20T07:38:04.937Z,1089.00
2023-05-20T07:39:07.879Z,1075.00
2023-05-20T07:40:05.931Z,1075.00
2023-05-20T07:41:04.917Z,1079.00
2023-05-20T07:42:04.909Z,1085.00
2023-05-20T07:43:04.909Z,1099.00
2023-05-20T07:44:04.912Z,1092.00
2023-05-20T07:45:04.879Z,1101.00
2023-05-20T07:46:04.950Z,1091.00
2023-05-20T07:47:04.873Z,1043.00
2023-05-20T07:48:04.899Z,1062.00
2023-05-20T07:49:04.838Z,1064.00
2023-05-20T07:50:04.825Z,1016.00
2023-05-20T07:51:04.848Z,1012.00
2023-05-20T07:52:04.809Z,1030.00
2023-05-20T07:53:04.788Z,1049.00
2023-05-20T07:54:04.796Z,1024.00
2023-05-20T07:55:04.807Z,1040.00
2023-05-20T07:56:04.800Z,1051.00
2023-05-20T07:57:04.854Z,1001.00
2023-05-20T07:58:04.861Z,1015.00
2023-05-20T07:59:04.871Z,982.00
2023-05-20T08:00:04.935Z,987.00
2023-05-20T08:01:04.949Z,968.00
2023-05-20T08:02:05.051Z,975.00
2023-05-20T08:03:05.187Z,947.00
2023-05-20T08:04:05.104Z,950.00
2023-05-20T08:05:05.091Z,947.00
2023-05-20T08:06:05.069Z,968.00
2023-05-20T08:07:05.133Z,957.00
2023-05-20T08:08:05.135Z,956.00
2023-05-20T08:09:05.150Z,953.00
2023-05-20T08:10:05.180Z,927.00
2023-05-20T08:11:05.280Z,929.00
2023-05-20T08:12:05.291Z,947.00
2023-05-20T08:13:05.283Z,951.00
2023-05-20T08:14:05.327Z,928.00
2023-05-20T08:15:05.351Z,939.00
2023-05-20T08:16:05.372Z,935.00
2023-05-20T08:17:05.407Z,942.00
2023-05-20T08:18:05.483Z,929.00
2023-05-20T08:19:05.489Z,931.00
2023-05-20T08:20:05.459Z,912.00
2023-05-20T08:21:05.480Z,902.00
2023-05-20T08:22:05.540Z,917.00
2023-05-20T08:23:05.549Z,923.00
2023-05-20T08:24:05.543Z,922.00
2023-05-20T08:25:05.557Z,891.00
2023-05-20T08:26:05.578Z,867.00
2023-05-20T08:27:05.638Z,879.00
2023-05-20T08:28:05.683Z,898.00
2023-05-20T08:29:05.692Z,887.00
2023-05-20T08:30:05.728Z,902.00
2023-05-20T08:31:05.768Z,929.00
2023-05-20T08:32:05.776Z,916.00
2023-05-20T08:33:05.831Z,913.00
2023-05-20T08:34:05.828Z,926.00
2023-05-20T08:35:05.863Z,931.00
2023-05-20T08:36:05.884Z,922.00
2023-05-20T08:37:05.932Z,929.00
2023-05-20T08:38:05.945Z,934.00
2023-05-20T08:39:05.964Z,925.00
2023-05-20T08:40:05.985Z,913.00
2023-05-20T08:41:06.039Z,899.00
2023-05-20T08:42:06.058Z,901.00
2023-05-20T08:43:06.098Z,919.00
2023-05-20T08:44:06.102Z,922.00
2023-05-20T08:45:06.138Z,914.00
2023-05-20T08:46:06.267Z,927.00
2023-05-20T08:47:06.163Z,902.00
2023-05-20T08:48:06.235Z,922.00
2023-05-20T08:49:06.200Z,900.00
2023-05-20T08:50:06.217Z,905.00
2023-05-20T08:51:06.218Z,920.00
2023-05-20T08:52:06.248Z,921.00
2023-05-20T08:53:06.265Z,916.00
2023-05-20T08:54:06.262Z,925.00
2023-05-20T08:55:06.299Z,938.00
2023-05-20T08:56:06.334Z,945.00
2023-05-20T08:57:06.323Z,909.00
2023-05-20T08:58:06.364Z,910.00
2023-05-20T08:59:06.395Z,927.00
2023-05-20T09:00:06.394Z,910.00
2023-05-20T09:01:06.414Z,921.00
2023-05-20T09:02:06.576Z,905.00
2023-05-20T09:03:06.509Z,890.00
2023-05-20T09:04:06.458Z,894.00
2023-05-20T09:05:06.560Z,908.00
2023-05-20T09:06:06.552Z,884.00
2023-05-20T09:07:06.571Z,894.00
2023-05-20T09:08:06.581Z,877.00
2023-05-20T09:09:06.626Z,891.00
2023-05-20T09:10:06.625Z,866.00
2023-05-20T09:11:06.634Z,869.00
2023-05-20T09:12:06.780Z,877.00
2023-05-20T09:13:06.702Z,869.00
2023-05-20T09:14:06.709Z,866.00
2023-05-20T09:15:06.725Z,858.00
2023-05-20T09:16:06.752Z,863.00
2023-05-20T09:17:06.761Z,882.00
2023-05-20T09:18:06.835Z,873.00
2023-05-20T09:19:06.883Z,865.00
2023-05-20T09:20:06.846Z,847.00
2023-05-20T09:21:06.939Z,852.00
2023-05-20T09:22:06.847Z,829.00
2023-05-20T09:23:06.897Z,788.00
2023-05-20T09:24:06.926Z,786.00
2023-05-20T09:25:06.929Z,755.00
2023-05-20T09:26:06.925Z,771.00
2023-05-20T09:27:06.961Z,781.00
2023-05-20T09:28:06.978Z,808.00
2023-05-20T09:29:06.975Z,804.00
2023-05-20T09:30:07.015Z,809.00
2023-05-20T09:31:07.070Z,810.00
2023-05-20T09:32:07.133Z,806.00
2023-05-20T09:33:07.107Z,806.00
2023-05-20T09:34:07.105Z,780.00
2023-05-20T09:35:07.079Z,805.00
2023-05-20T09:36:07.133Z,789.00
2023-05-20T09:37:07.150Z,768.00
2023-05-20T09:38:07.149Z,716.00
2023-05-20T09:39:07.160Z,715.00
2023-05-20T09:40:07.162Z,739.00
2023-05-20T09:41:07.193Z,660.00
2023-05-20T09:42:07.241Z,679.00
2023-05-20T09:43:07.224Z,663.00
2023-05-20T09:44:07.208Z,659.00
2023-05-20T09:45:07.210Z,672.00
2023-05-20T09:46:07.254Z,694.00
2023-05-20T09:47:08.631Z,657.00
2023-05-20T09:48:07.301Z,628.00
2023-05-20T09:49:07.251Z,632.00
2023-05-20T09:50:07.263Z,630.00
2023-05-20T09:51:07.268Z,642.00
2023-05-20T09:52:07.290Z,649.00
2023-05-20T09:53:07.294Z,657.00
2023-05-20T09:54:07.340Z,655.00
2023-05-20T09:55:07.333Z,664.00
2023-05-20T09:56:07.336Z,666.00
2023-05-20T09:57:07.340Z,678.00
2023-05-20T09:58:07.315Z,679.00
2023-05-20T09:59:07.356Z,679.00
2023-05-20T10:00:07.343Z,718.00
2023-05-20T10:01:07.420Z,694.00
2023-05-20T10:02:07.389Z,693.00
2023-05-20T10:03:07.465Z,697.00
2023-05-20T10:04:07.424Z,709.00
2023-05-20T10:05:07.429Z,720.00
2023-05-20T10:06:07.422Z,708.00
2023-05-20T10:07:07.425Z,713.00
2023-05-20T10:08:07.437Z,700.00
2023-05-20T10:09:07.430Z,706.00
2023-05-20T10:10:07.393Z,738.00
2023-05-20T10:11:07.448Z,721.00
2023-05-20T10:12:07.407Z,685.00
2023-05-20T10:13:07.422Z,666.00
2023-05-20T10:14:07.427Z,661.00
2023-05-20T10:15:07.462Z,659.00
2023-05-20T10:16:07.461Z,663.00
2023-05-20T10:17:07.441Z,657.00
2023-05-20T10:18:07.454Z,648.00
2023-05-20T10:19:07.519Z,646.00
2023-05-20T10:20:07.493Z,645.00
2023-05-20T10:21:07.488Z,638.00
2023-05-20T10:22:07.491Z,641.00
2023-05-20T10:23:07.498Z,662.00
2023-05-20T10:24:07.525Z,664.00
2023-05-20T10:25:07.537Z,659.00
2023-05-20T10:26:07.543Z,653.00
2023-05-20T10:27:07.533Z,658.00
2023-05-20T10:28:07.562Z,655.00
2023-05-20T10:29:07.855Z,644.00
2023-05-20T10:30:07.580Z,653.00
2023-05-20T10:31:07.566Z,637.00
2023-05-20T10:32:07.579Z,641.00
2023-05-20T10:33:07.929Z,644.00
2023-05-20T10:34:07.545Z,644.00
2023-05-20T10:35:07.552Z,648.00
2023-05-20T10:36:07.537Z,650.00
2023-05-20T10:37:07.558Z,649.00
2023-05-20T10:38:07.570Z,649.00
2023-05-20T10:39:07.562Z,657.00
2023-05-20T10:40:07.572Z,662.00
2023-05-20T10:41:07.599Z,660.00
2023-05-20T10:42:07.594Z,662.00
2023-05-20T10:43:07.605Z,656.00
2023-05-20T10:44:07.621Z,663.00
2023-05-20T10:45:07.643Z,665.00
2023-05-20T10:46:17.147Z,663.00
2023-05-20T10:48:08.676Z,664.00
2023-05-20T10:49:07.619Z,667.00
2023-05-20T10:50:07.570Z,673.00
2023-05-20T10:51:07.522Z,695.00
2023-05-20T10:52:07.520Z,693.00
2023-05-20T10:53:13.277Z,702.00
2023-05-20T10:54:08.450Z,702.00
2023-05-20T10:55:07.439Z,683.00
2023-05-20T10:56:07.430Z,679.00
2023-05-20T10:57:07.399Z,667.00
2023-05-20T10:58:07.369Z,664.00
2023-05-20T10:59:07.368Z,663.00
2023-05-20T11:00:07.345Z,660.00
2023-05-20T11:01:07.342Z,659.00
2023-05-20T11:02:07.317Z,653.00
2023-05-20T11:03:07.462Z,650.00
2023-05-20T11:04:07.407Z,649.00
2023-05-20T11:05:07.266Z,650.00
2023-05-20T11:06:07.353Z,648.00
2023-05-20T11:07:07.207Z,645.00
2023-05-20T11:08:14.006Z,651.00
2023-05-20T11:09:08.155Z,652.00
2023-05-20T11:10:07.168Z,653.00
2023-05-20T11:11:07.137Z,651.00
2023-05-20T11:12:07.106Z,646.00
2023-05-20T11:13:07.104Z,646.00
2023-05-20T11:14:07.079Z,644.00
2023-05-20T11:15:07.078Z,630.00
2023-05-20T11:16:07.084Z,610.00
2023-05-20T11:17:07.041Z,595.00
2023-05-20T11:18:07.040Z,594.00
2023-05-20T11:19:07.038Z,602.00
2023-05-20T11:20:06.961Z,599.00
2023-05-20T11:21:06.916Z,594.00
2023-05-20T11:22:06.919Z,596.00
2023-05-20T11:23:06.882Z,611.00
2023-05-20T11:24:06.868Z,625.00
2023-05-20T11:25:06.813Z,614.00
2023-05-20T11:26:06.811Z,622.00
2023-05-20T11:27:06.810Z,623.00
2023-05-20T11:28:06.806Z,607.00
2023-05-20T11:29:06.836Z,586.00
2023-05-20T11:30:06.834Z,584.00
2023-05-20T11:31:06.843Z,579.00
2023-05-20T11:32:06.859Z,586.00
2023-05-20T11:33:06.907Z,590.00
2023-05-20T11:34:06.868Z,602.00
2023-05-20T11:35:06.851Z,588.00
2023-05-20T11:36:13.492Z,592.00
2023-05-20T11:37:07.833Z,592.00
2023-05-20T11:38:06.810Z,589.00
2023-05-20T11:39:06.787Z,571.00
2023-05-20T11:40:06.799Z,576.00
2023-05-20T11:41:06.771Z,573.00
2023-05-20T11:42:06.771Z,577.00
2023-05-20T11:43:06.742Z,575.00
2023-05-20T11:44:06.722Z,560.00
2023-05-20T11:45:06.691Z,559.00
2023-05-20T11:46:06.758Z,551.00
2023-05-20T11:47:06.689Z,553.00
2023-05-20T11:48:06.681Z,546.00
2023-05-20T11:49:06.638Z,551.00
2023-05-20T11:50:06.626Z,549.00
2023-05-20T11:51:06.600Z,548.00
2023-05-20T11:52:06.613Z,533.00
2023-05-20T11:53:06.571Z,541.00
2023-05-20T11:54:06.553Z,533.00
2023-05-20T11:55:06.538Z,536.00
2023-05-20T11:56:06.523Z,535.00
2023-05-20T11:57:07.331Z,524.00
2023-05-20T11:58:06.442Z,522.00
2023-05-20T11:59:06.453Z,508.00
2023-05-20T12:00:06.446Z,519.00
2023-05-20T12:01:20.903Z,504.00
2023-05-20T12:02:07.464Z,505.00
2023-05-20T12:03:06.530Z,504.00
2023-05-20T12:04:06.502Z,496.00
2023-05-20T12:05:06.449Z,481.00
2023-05-20T12:06:06.420Z,462.00
2023-05-20T12:07:06.494Z,499.00
2023-05-20T12:08:06.404Z,501.00
2023-05-20T12:09:06.380Z,500.00
2023-05-20T12:10:06.394Z,512.00
2023-05-20T12:11:06.342Z,516.00
2023-05-20T12:12:06.323Z,517.00
2023-05-20T12:13:06.289Z,518.00
2023-05-20T12:14:06.283Z,512.00
2023-05-20T12:15:06.207Z,515.00